Flight Track Log - Related Links

Times and Time Zones

All times are in EDT time to prevent confusion due to time zone crossing. See the BOE5 flight status page for this flight to view local times or setup timezone preferences in your user account.


Time Position Orientation Groundspeed Altitude Reporting Facility
EDT Latitude Longitude Course Direction KTS MPH feet Rate Location/Type
Thu 06:06:21 PM 47.2661 -119.4567 297° West 228 262 6,700  Level Seattle Center
Thu 06:07:22 PM 47.3033 -119.5636 297° West 270 311 9,700 2,361 Climbing Seattle Center
Thu 06:08:23 PM 47.3381 -119.6667 296° West 290 334 11,500 2,066 Climbing Seattle Center
Thu 06:09:24 PM 47.3744 -119.7714 297° West 286 329 13,900 2,164 Climbing Seattle Center
Thu 06:10:25 PM 47.4122 -119.8806 297° West 297 342 15,900 1,024 Climbing Seattle Center
Thu 06:11:27 PM 47.4531 -119.9989 297° West 302 348 16,000 49 Climbing Seattle Center
Thu 06:12:28 PM 47.4981 -120.1336 296° West 372 428 16,000  Level Seattle Center
Thu 06:13:29 PM 47.5464 -120.2778 296° West 391 450 16,000 -49 Level Seattle Center
Thu 06:14:30 PM 47.5939 -120.4217 296° West 390 449 15,900 -49 Descending Seattle Center
Thu 06:15:31 PM 47.6367 -120.5433 298° West 381 438 15,900  Level Seattle Center
Thu 06:16:32 PM 47.6878 -120.6917 297° West 398 458 15,900 49 Level Seattle Center
Thu 06:17:33 PM 47.7394 -120.8758 293° West 417 480 16,000 49 Climbing Seattle Center
Thu 06:18:34 PM 47.7411 -121.0469 271° West 410 472 16,000  Level Seattle Center
Thu 06:19:35 PM 47.7481 -121.2328 273° West 413 475 16,000 -692 Level Seattle Center
Thu 06:20:18 PM 47.7536 -121.3503 274° West 410 472 14,800 -2,361 Descending Seattle Center
Thu 06:20:36 PM 47.7544 -121.3964 272° West 389 448 13,600 -2,754 Descending Seattle Center
Thu 06:21:19 PM 47.7564 -121.4978 272° West 348 400 12,000 -1,839 Descending Seattle Center
Thu 06:21:38 PM 47.7583 -121.5378 274° West 333 383 11,700 -1,433 Descending Seattle Center
Thu 06:22:26 PM 47.7622 -121.6400 273° West 277 319 10,400 -990 Descending Seattle Center
Thu 06:23:21 PM 47.7647 -121.7444 272° West 274 315 10,000 -568 Descending Seattle Center
Thu 06:23:40 PM 47.7611 -121.7789 261° West 280 322 9,700 -1,548 Descending Seattle Center
Thu 06:24:23 PM 47.7181 -121.8236 215° Southwest 278 320 8,400 -1,869 Descending Seattle Center
Thu 06:24:41 PM 47.6947 -121.8325 194° South 279 321 7,800 -1,475 Descending Seattle Center
Thu 06:25:24 PM 47.6469 -121.8506 194° South 261 300 6,900 -1,279 Descending Seattle Center
Thu 06:25:42 PM 47.6275 -121.8592 197° South 245 282 6,500 -1,574 Descending Seattle Center
Thu 06:26:25 PM 47.5853 -121.8786 197° South 226 260 5,300 -1,475 Descending Seattle Center
Thu 06:26:43 PM 47.5606 -121.8881 194° South 233 268 5,000 -295 Descending Seattle Center
Thu 06:27:26 PM 47.5203 -121.9119 202° Southwest 225 259 5,000  Level Seattle Center
Thu 06:27:44 PM 47.5039 -121.9269 212° Southwest 227 261 5,000 -492 Level Seattle Center
Thu 06:28:27 PM 47.4689 -121.9636 215° Southwest 229 264 4,500 -774 Descending Seattle Center
Thu 06:28:46 PM 47.4531 -121.9825 219° Southwest 227 261 4,200 -295 Descending Seattle Center
Thu 06:29:28 PM 47.4172 -122.0219 217° Southwest 225 259 4,200  Level Seattle Center
Thu 06:29:47 PM 47.4028 -122.0372 216° Southwest 225 259 4,200 -448 Level Seattle Center
Thu 06:30:35 PM 47.3906 -122.1089 256° West 230 265 3,700 -816 Descending Seattle Center
Thu 06:31:30 PM 47.4142 -122.1844 295° West 218 251 2,800 -973 Descending Seattle Center
Thu 06:31:49 PM 47.4231 -122.2056 302° West 215 247 2,500 -774 Descending Seattle Center
Thu 06:32:32 PM 47.4439 -122.2303 321° Northwest 139 160 2,000 -787 Descending Seattle Center
Thu 06:32:50 PM 47.4542 -122.2406 326° Northwest 145 167 1,700 -984 Descending Seattle Center
Thu 06:33:33 PM 47.4775 -122.2575 334° Northwest 131 151 1,000 -885 Descending Seattle Center
Thu 06:33:51 PM 47.4869 -122.2672 325° Northwest 137 158 800 -689 Descending Seattle Center
Thu 06:34:34 PM 47.5092 -122.2861 330° Northwest 135 155 300 -689 Descending Seattle Center
Thu 06:34:52 PM 47.5192 -122.2933 334° Northwest 135 155 100 -667 Descending Seattle Center

Login

Don't have an account? Register now (free) for customized features, flight alerts, and more!